createdAt,value
2018-06-16T00:00:58.114Z,68.59
2018-06-16T00:02:04.708Z,68.59
2018-06-16T00:03:11.782Z,68.71
2018-06-16T00:04:19.012Z,68.66
2018-06-16T00:05:25.718Z,68.64
2018-06-16T00:06:32.340Z,68.54
2018-06-16T00:07:39.471Z,68.49
2018-06-16T00:08:46.602Z,68.52
2018-06-16T00:09:53.616Z,68.52
2018-06-16T00:11:00.627Z,68.40
2018-06-16T00:12:09.645Z,68.38
2018-06-16T00:13:14.742Z,68.44
2018-06-16T00:14:21.078Z,68.45
2018-06-16T00:15:27.986Z,68.36
2018-06-16T00:16:34.926Z,68.36
2018-06-16T00:17:41.947Z,68.39
2018-06-16T00:18:48.998Z,68.41
2018-06-16T00:19:55.971Z,68.41
2018-06-16T00:21:02.901Z,68.42
2018-06-16T00:22:09.778Z,68.42
2018-06-16T00:23:16.723Z,68.43
2018-06-16T00:24:23.726Z,68.47
2018-06-16T00:25:30.814Z,68.54
2018-06-16T00:26:37.807Z,68.56
2018-06-16T00:27:44.794Z,68.57
2018-06-16T00:28:51.823Z,68.52
2018-06-16T00:29:58.753Z,68.51
2018-06-16T00:31:05.879Z,68.53
2018-06-16T00:32:12.463Z,68.56
2018-06-16T00:33:19.583Z,68.56
2018-06-16T00:34:26.290Z,68.58
2018-06-16T00:35:33.341Z,68.51
2018-06-16T00:36:40.403Z,68.45
2018-06-16T00:37:47.283Z,68.47
2018-06-16T00:38:54.267Z,68.46
2018-06-16T00:40:01.219Z,68.41
2018-06-16T00:41:07.795Z,68.46
2018-06-16T00:42:14.766Z,68.48
2018-06-16T00:43:21.874Z,68.48
2018-06-16T00:44:28.842Z,68.53
2018-06-16T00:45:37.043Z,68.60
2018-06-16T00:46:42.949Z,68.57
2018-06-16T00:47:49.975Z,68.54
2018-06-16T00:48:56.918Z,68.53
2018-06-16T00:50:03.934Z,68.54
2018-06-16T00:51:10.747Z,68.49
2018-06-16T00:52:17.958Z,68.46
2018-06-16T00:53:24.467Z,68.47
2018-06-16T00:54:31.447Z,68.49
2018-06-16T00:55:38.346Z,68.45
2018-06-16T00:56:45.171Z,68.44
2018-06-16T00:57:52.320Z,68.44
2018-06-16T00:58:59.282Z,68.48
2018-06-16T01:00:06.150Z,68.55
2018-06-16T01:01:13.101Z,68.57
2018-06-16T01:02:20.028Z,68.58
2018-06-16T01:03:26.963Z,68.66
2018-06-16T01:04:33.866Z,68.73
2018-06-16T01:05:40.832Z,68.76
2018-06-16T01:06:47.799Z,68.77
2018-06-16T01:07:54.596Z,68.72
2018-06-16T01:09:01.549Z,68.72
2018-06-16T01:10:08.552Z,68.72
2018-06-16T01:11:15.296Z,68.73
2018-06-16T01:12:22.117Z,68.78
2018-06-16T01:13:29.036Z,68.84
2018-06-16T01:14:35.942Z,68.82
2018-06-16T01:15:42.962Z,68.89
2018-06-16T01:16:49.891Z,68.91
2018-06-16T01:17:56.811Z,68.92
2018-06-16T01:19:03.851Z,68.94
2018-06-16T01:20:10.752Z,68.98
2018-06-16T01:21:17.670Z,69.00
2018-06-16T01:22:24.644Z,69.02
2018-06-16T01:23:31.630Z,69.07
2018-06-16T01:24:38.575Z,69.05
2018-06-16T01:25:45.506Z,69.03
2018-06-16T01:26:52.385Z,69.09
2018-06-16T01:27:59.228Z,69.11
2018-06-16T01:29:06.142Z,69.10
2018-06-16T01:30:13.043Z,69.13
2018-06-16T01:31:19.976Z,69.13
2018-06-16T01:32:26.899Z,69.14
2018-06-16T01:33:33.965Z,69.17
2018-06-16T01:34:40.878Z,69.17
2018-06-16T01:35:47.858Z,69.20
2018-06-16T01:36:54.786Z,69.22
2018-06-16T01:38:01.706Z,69.25
2018-06-16T01:39:08.722Z,69.14
2018-06-16T01:40:15.762Z,69.09
2018-06-16T01:41:22.700Z,69.06
2018-06-16T01:42:29.706Z,69.06
2018-06-16T01:43:36.613Z,69.07
2018-06-16T01:44:43.565Z,69.08
2018-06-16T01:45:50.451Z,69.10
2018-06-16T01:46:57.387Z,69.13
2018-06-16T01:48:04.448Z,69.16
2018-06-16T01:49:11.226Z,69.10
2018-06-16T01:50:18.187Z,69.12
2018-06-16T01:51:25.085Z,69.19
2018-06-16T01:52:31.998Z,69.16
2018-06-16T01:53:38.975Z,69.13
2018-06-16T01:54:45.898Z,69.13
2018-06-16T01:55:52.811Z,69.15
2018-06-16T01:56:59.612Z,69.16
2018-06-16T01:58:06.581Z,69.22
2018-06-16T01:59:13.552Z,69.25
2018-06-16T02:00:20.607Z,69.27
2018-06-16T02:01:27.455Z,69.24
2018-06-16T02:02:34.326Z,69.27
2018-06-16T02:03:41.287Z,69.30
2018-06-16T02:04:48.215Z,69.33
2018-06-16T02:05:55.090Z,69.30
2018-06-16T02:07:02.036Z,69.32
2018-06-16T02:08:08.927Z,69.32
2018-06-16T02:09:15.894Z,69.32
2018-06-16T02:10:22.773Z,69.38
2018-06-16T02:11:29.692Z,69.36
2018-06-16T02:12:36.470Z,69.39
2018-06-16T02:13:43.334Z,69.39
2018-06-16T02:14:50.171Z,69.37
2018-06-16T02:15:57.147Z,69.38
2018-06-16T02:17:04.302Z,69.35
2018-06-16T02:18:10.786Z,69.41
2018-06-16T02:19:17.781Z,69.44
2018-06-16T02:20:24.542Z,69.43
2018-06-16T02:21:31.402Z,69.37
2018-06-16T02:22:38.407Z,69.36
2018-06-16T02:23:45.378Z,69.35
2018-06-16T02:24:52.287Z,69.29
2018-06-16T02:25:59.198Z,69.29
2018-06-16T02:27:06.133Z,69.30
2018-06-16T02:28:13.053Z,69.28
2018-06-16T02:29:20.009Z,69.23
2018-06-16T02:30:26.870Z,69.20
2018-06-16T02:31:33.669Z,69.21
2018-06-16T02:32:40.469Z,69.27
2018-06-16T02:33:47.250Z,69.24
2018-06-16T02:34:54.184Z,69.24
2018-06-16T02:36:00.897Z,69.21
2018-06-16T02:37:07.855Z,69.23
2018-06-16T02:38:14.737Z,69.34
2018-06-16T02:39:21.670Z,69.37
2018-06-16T02:40:28.486Z,69.35
2018-06-16T02:41:35.253Z,69.36
2018-06-16T02:42:42.257Z,69.42
2018-06-16T02:43:49.021Z,69.44
2018-06-16T02:44:56.169Z,69.48
2018-06-16T02:46:02.992Z,69.44
2018-06-16T02:47:09.842Z,69.36
2018-06-16T02:48:16.773Z,69.28
2018-06-16T02:49:23.683Z,69.27
2018-06-16T02:50:30.580Z,69.30
2018-06-16T02:51:37.424Z,69.32
2018-06-16T02:52:44.337Z,69.32
2018-06-16T02:53:51.250Z,69.33
2018-06-16T02:54:58.081Z,69.33
2018-06-16T02:56:04.983Z,69.36
2018-06-16T02:57:11.806Z,69.42
2018-06-16T02:58:18.615Z,69.42
2018-06-16T02:59:25.651Z,69.42
2018-06-16T03:00:32.444Z,69.37
2018-06-16T03:01:39.154Z,69.34
2018-06-16T03:02:45.888Z,69.34
2018-06-16T03:03:52.809Z,69.34
2018-06-16T03:04:59.537Z,69.32
2018-06-16T03:06:06.306Z,69.32
2018-06-16T03:07:13.094Z,69.36
2018-06-16T03:08:19.874Z,69.35
2018-06-16T03:09:26.814Z,69.33
2018-06-16T03:10:33.696Z,69.34
2018-06-16T03:11:40.426Z,69.34
2018-06-16T03:12:47.133Z,69.38
2018-06-16T03:13:53.841Z,69.40
2018-06-16T03:15:00.560Z,69.47
2018-06-16T03:16:07.277Z,69.42
2018-06-16T03:17:14.106Z,69.40
2018-06-16T03:18:20.907Z,69.38
2018-06-16T03:19:27.782Z,69.44
2018-06-16T03:20:34.534Z,69.48
2018-06-16T03:21:41.254Z,69.49
2018-06-16T03:22:47.958Z,69.51
2018-06-16T03:23:54.794Z,69.53
2018-06-16T03:25:01.559Z,69.57
2018-06-16T03:26:08.461Z,69.63
2018-06-16T03:27:15.234Z,69.67
2018-06-16T03:28:22.111Z,69.71
2018-06-16T03:29:28.893Z,69.79
2018-06-16T03:30:35.826Z,69.84
2018-06-16T03:31:42.726Z,69.86
2018-06-16T03:32:49.648Z,69.89
2018-06-16T03:33:56.574Z,69.98
2018-06-16T03:35:03.494Z,69.99
2018-06-16T03:36:10.378Z,70.02
2018-06-16T03:37:17.165Z,70.08
2018-06-16T03:38:23.944Z,70.10
2018-06-16T03:39:30.671Z,70.18
2018-06-16T03:40:37.539Z,70.24
2018-06-16T03:41:44.291Z,70.33
2018-06-16T03:42:51.161Z,70.33
2018-06-16T03:43:58.063Z,70.35
2018-06-16T03:45:04.791Z,70.40
2018-06-16T03:46:11.711Z,70.44
2018-06-16T03:47:18.493Z,70.47
2018-06-16T03:48:25.301Z,70.53
2018-06-16T03:49:32.493Z,70.55
2018-06-16T03:50:39.251Z,70.60
2018-06-16T03:51:46.220Z,70.65
2018-06-16T03:52:53.076Z,70.71
2018-06-16T03:53:59.894Z,70.75
2018-06-16T03:55:06.870Z,70.80
2018-06-16T03:56:13.771Z,70.91
2018-06-16T03:57:20.666Z,70.99
2018-06-16T03:58:27.603Z,71.02
2018-06-16T03:59:34.603Z,71.09
2018-06-16T04:00:41.550Z,71.12
2018-06-16T04:01:48.940Z,71.18
2018-06-16T04:02:55.798Z,71.23
2018-06-16T04:04:02.767Z,71.31
2018-06-16T04:05:09.639Z,71.33
2018-06-16T04:06:16.468Z,71.41
2018-06-16T04:07:23.386Z,71.50
2018-06-16T04:08:30.176Z,71.62
2018-06-16T04:09:37.027Z,71.72
2018-06-16T04:10:43.961Z,71.75
2018-06-16T04:11:50.834Z,71.85
2018-06-16T04:12:57.837Z,71.96
2018-06-16T04:14:04.791Z,72.01
2018-06-16T04:15:11.890Z,72.06
2018-06-16T04:16:18.726Z,72.13
2018-06-16T04:17:25.644Z,72.19
2018-06-16T04:18:32.668Z,72.23
2018-06-16T04:19:39.626Z,72.35
2018-06-16T04:20:46.531Z,72.43
2018-06-16T04:21:53.318Z,72.52
2018-06-16T04:23:00.047Z,72.58
2018-06-16T04:24:06.934Z,72.63
2018-06-16T04:25:13.865Z,72.70
2018-06-16T04:26:20.762Z,72.78
2018-06-16T04:27:27.721Z,72.87
2018-06-16T04:28:34.945Z,72.90
2018-06-16T04:29:41.360Z,72.93
2018-06-16T04:30:48.270Z,72.94
2018-06-16T04:31:55.212Z,73.01
2018-06-16T04:33:01.855Z,73.05
2018-06-16T04:34:08.645Z,73.06
2018-06-16T04:35:15.530Z,73.14
2018-06-16T04:36:22.444Z,73.15
2018-06-16T04:37:29.297Z,73.23
2018-06-16T04:38:36.118Z,73.27
2018-06-16T04:39:42.834Z,73.35
2018-06-16T04:40:50.063Z,73.42
2018-06-16T04:41:56.478Z,73.41
2018-06-16T04:43:03.229Z,73.44
2018-06-16T04:44:10.182Z,73.48
2018-06-16T04:45:16.873Z,73.55
2018-06-16T04:46:23.800Z,73.59
2018-06-16T04:47:30.621Z,73.67
2018-06-16T04:48:37.677Z,73.75
2018-06-16T04:49:44.443Z,73.81
2018-06-16T04:50:51.367Z,73.86
2018-06-16T04:51:58.182Z,73.95
2018-06-16T04:53:05.085Z,74.04
2018-06-16T04:54:11.856Z,74.11
2018-06-16T04:55:18.641Z,74.18
2018-06-16T04:56:25.330Z,74.24
2018-06-16T04:57:32.131Z,74.34
2018-06-16T04:58:39.066Z,74.37
2018-06-16T04:59:45.968Z,74.47
2018-06-16T05:00:52.982Z,74.52
2018-06-16T05:01:59.738Z,74.61
2018-06-16T05:03:06.591Z,74.63
2018-06-16T05:04:13.277Z,74.73
2018-06-16T05:05:20.334Z,74.76
2018-06-16T05:06:27.141Z,74.83
2018-06-16T05:07:33.835Z,74.89
2018-06-16T05:08:40.656Z,75.02
2018-06-16T05:09:47.739Z,75.06
2018-06-16T05:10:54.775Z,75.11
2018-06-16T05:12:01.766Z,75.20
2018-06-16T05:13:08.725Z,75.26
2018-06-16T05:14:15.633Z,75.37
2018-06-16T05:15:22.346Z,75.39
2018-06-16T05:16:29.158Z,75.48
2018-06-16T05:17:35.971Z,75.61
2018-06-16T05:18:42.886Z,75.72
2018-06-16T05:19:50.001Z,75.82
2018-06-16T05:20:56.718Z,75.99
2018-06-16T05:22:03.663Z,76.12
2018-06-16T05:23:10.765Z,76.21
2018-06-16T05:24:17.648Z,76.31
2018-06-16T05:25:24.645Z,76.40
2018-06-16T05:26:31.295Z,76.49
2018-06-16T05:27:38.379Z,76.59
2018-06-16T05:28:45.495Z,76.67
2018-06-16T05:29:52.344Z,76.76
2018-06-16T05:30:59.485Z,76.87
2018-06-16T05:32:06.212Z,76.96
2018-06-16T05:33:13.585Z,77.07
2018-06-16T05:34:20.119Z,77.18
2018-06-16T05:35:27.073Z,77.29
2018-06-16T05:36:33.879Z,77.29
2018-06-16T05:37:40.951Z,77.34
2018-06-16T05:38:47.647Z,77.38
2018-06-16T05:39:54.417Z,77.44
2018-06-16T05:41:01.356Z,77.51
2018-06-16T05:42:08.126Z,77.61
2018-06-16T05:43:15.232Z,77.72
2018-06-16T05:44:22.038Z,77.80
2018-06-16T05:45:29.120Z,77.83
2018-06-16T05:46:35.898Z,77.88
2018-06-16T05:47:42.855Z,78.00
2018-06-16T05:48:49.766Z,78.11
2018-06-16T05:49:56.615Z,78.22
2018-06-16T05:51:03.608Z,78.31
2018-06-16T05:52:10.447Z,78.44
2018-06-16T05:53:17.373Z,78.61
2018-06-16T05:54:24.304Z,78.71
2018-06-16T05:55:31.330Z,78.78
2018-06-16T05:56:38.235Z,78.81
2018-06-16T05:57:45.273Z,78.91
2018-06-16T05:58:53.772Z,79.05
2018-06-16T05:59:59.144Z,79.14
2018-06-16T06:01:06.031Z,79.28
2018-06-16T06:02:12.979Z,79.42
2018-06-16T06:03:20.044Z,79.55
2018-06-16T06:04:27.077Z,79.65
2018-06-16T06:05:33.873Z,79.74
2018-06-16T06:06:40.892Z,79.86
2018-06-16T06:07:48.924Z,79.95
2018-06-16T06:08:54.837Z,80.00
2018-06-16T06:10:01.850Z,80.08
2018-06-16T06:11:08.906Z,80.14
2018-06-16T06:12:15.843Z,80.23
2018-06-16T06:13:22.601Z,80.34
2018-06-16T06:14:29.544Z,80.40
2018-06-16T06:15:36.438Z,80.49
2018-06-16T06:16:43.342Z,80.62
2018-06-16T06:17:50.245Z,80.68
2018-06-16T06:18:57.204Z,80.74
2018-06-16T06:20:04.163Z,80.82
2018-06-16T06:21:10.984Z,81.02
2018-06-16T06:22:17.911Z,81.24
2018-06-16T06:23:24.761Z,81.35
2018-06-16T06:24:31.651Z,81.49
2018-06-16T06:25:38.593Z,81.61
2018-06-16T06:26:45.546Z,81.70
2018-06-16T06:27:52.560Z,81.83
2018-06-16T06:28:59.484Z,81.98
2018-06-16T06:30:06.439Z,82.09
2018-06-16T06:31:13.403Z,82.17
2018-06-16T06:32:20.228Z,82.29
2018-06-16T06:33:27.150Z,82.41
2018-06-16T06:34:33.955Z,82.56
2018-06-16T06:35:40.905Z,82.71
2018-06-16T06:36:47.942Z,82.76
2018-06-16T06:37:54.530Z,82.84
2018-06-16T06:39:01.505Z,83.03
2018-06-16T06:40:08.347Z,83.16
2018-06-16T06:41:15.399Z,83.31
2018-06-16T06:42:22.103Z,83.41
2018-06-16T06:43:28.903Z,83.50
2018-06-16T06:44:35.680Z,83.54
2018-06-16T06:45:42.365Z,83.58
2018-06-16T06:46:49.214Z,83.68
2018-06-16T06:47:55.899Z,83.75
2018-06-16T06:49:02.783Z,83.87
2018-06-16T06:50:09.666Z,84.00
2018-06-16T06:51:16.417Z,84.06
2018-06-16T06:52:23.139Z,84.13
2018-06-16T06:53:29.958Z,84.19
2018-06-16T06:54:36.774Z,84.26
2018-06-16T06:55:43.674Z,84.36
2018-06-16T06:56:50.460Z,84.47
2018-06-16T06:57:57.471Z,84.52
2018-06-16T06:59:04.248Z,84.63
2018-06-16T07:00:11.058Z,84.69
2018-06-16T07:01:18.196Z,84.84
2018-06-16T07:02:24.707Z,84.95
2018-06-16T07:03:31.583Z,85.10
2018-06-16T07:04:38.494Z,85.19
2018-06-16T07:05:45.275Z,85.27
2018-06-16T07:06:52.296Z,85.31
2018-06-16T07:07:59.020Z,85.36
2018-06-16T07:09:05.784Z,85.50
2018-06-16T07:10:13.023Z,85.55
2018-06-16T07:11:19.971Z,85.64
2018-06-16T07:12:26.618Z,85.71
2018-06-16T07:13:33.878Z,85.75
2018-06-16T07:14:40.913Z,85.84
2018-06-16T07:15:48.041Z,85.90
2018-06-16T07:16:54.984Z,85.95
2018-06-16T07:18:01.883Z,86.01
2018-06-16T07:19:08.729Z,86.08
2018-06-16T07:20:15.510Z,86.16
2018-06-16T07:21:22.610Z,86.23
2018-06-16T07:22:29.715Z,86.37
2018-06-16T07:23:36.144Z,86.52
2018-06-16T07:24:43.050Z,86.63
2018-06-16T07:25:49.953Z,86.68
2018-06-16T07:26:56.767Z,86.73
2018-06-16T07:28:03.653Z,86.78
2018-06-16T07:29:10.697Z,86.93
2018-06-16T07:30:17.443Z,87.00
2018-06-16T07:31:24.214Z,87.06
2018-06-16T07:32:31.200Z,87.20
2018-06-16T07:33:37.918Z,87.34
2018-06-16T07:34:44.618Z,87.50
2018-06-16T07:35:51.410Z,87.64
2018-06-16T07:36:58.445Z,87.71
2018-06-16T07:38:05.374Z,87.81
2018-06-16T07:39:12.340Z,87.84
2018-06-16T07:40:19.289Z,87.79
2018-06-16T07:41:26.229Z,87.82
2018-06-16T07:42:33.038Z,87.92
2018-06-16T07:43:39.775Z,88.03
2018-06-16T07:44:46.487Z,88.07
2018-06-16T07:45:53.295Z,88.13
2018-06-16T07:47:00.035Z,88.17
2018-06-16T07:48:06.803Z,88.21
2018-06-16T07:49:13.599Z,88.16
2018-06-16T07:50:20.426Z,88.14
2018-06-16T07:51:27.194Z,88.16
2018-06-16T07:52:34.080Z,88.19
2018-06-16T07:53:40.775Z,88.23
2018-06-16T07:54:47.529Z,88.26
2018-06-16T07:55:54.254Z,88.28
2018-06-16T07:57:01.107Z,88.25
2018-06-16T07:58:07.906Z,88.31
2018-06-16T07:59:14.596Z,88.36
2018-06-16T08:00:21.536Z,88.39
2018-06-16T08:01:28.467Z,88.44
2018-06-16T08:02:35.283Z,88.50
2018-06-16T08:03:42.317Z,88.54
2018-06-16T08:04:49.290Z,88.67
2018-06-16T08:05:56.028Z,88.73
2018-06-16T08:07:02.742Z,88.75
2018-06-16T08:08:09.956Z,88.77
2018-06-16T08:09:16.506Z,88.83
2018-06-16T08:10:23.384Z,88.96
2018-06-16T08:11:30.342Z,89.05
2018-06-16T08:12:37.269Z,88.98
2018-06-16T08:13:44.091Z,88.91
2018-06-16T08:14:50.970Z,88.96
2018-06-16T08:15:57.957Z,88.99
2018-06-16T08:17:04.697Z,89.02
2018-06-16T08:18:11.393Z,89.12
2018-06-16T08:19:18.180Z,89.24
2018-06-16T08:20:24.865Z,89.29
2018-06-16T08:21:31.686Z,89.25
2018-06-16T08:22:38.432Z,89.14
2018-06-16T08:23:45.273Z,89.21
2018-06-16T08:24:52.098Z,89.17
2018-06-16T08:25:58.965Z,89.14
2018-06-16T08:27:05.832Z,89.10
2018-06-16T08:28:12.611Z,88.99
2018-06-16T08:29:19.428Z,89.03
2018-06-16T08:30:26.158Z,88.98
2018-06-16T08:31:32.993Z,88.90
2018-06-16T08:32:39.826Z,88.86
2018-06-16T08:33:47.496Z,88.89
2018-06-16T08:34:53.500Z,88.99
2018-06-16T08:36:00.458Z,88.87
2018-06-16T08:37:07.410Z,88.70
2018-06-16T08:38:14.221Z,88.68
2018-06-16T08:39:21.145Z,88.67
2018-06-16T08:40:27.957Z,88.62
2018-06-16T08:41:34.788Z,88.68
2018-06-16T08:42:41.581Z,88.88
2018-06-16T08:43:48.434Z,88.90
2018-06-16T08:44:55.218Z,88.75
2018-06-16T08:46:02.063Z,88.62
2018-06-16T08:47:09.118Z,88.40
2018-06-16T08:48:15.644Z,88.31
2018-06-16T08:49:22.414Z,88.39
2018-06-16T08:50:29.265Z,88.56
2018-06-16T08:51:36.070Z,88.49
2018-06-16T08:52:42.839Z,88.36
2018-06-16T08:53:49.733Z,88.26
2018-06-16T08:54:56.425Z,88.21
2018-06-16T08:56:03.211Z,88.23
2018-06-16T08:57:10.054Z,88.15
2018-06-16T08:58:16.911Z,88.22
2018-06-16T08:59:23.755Z,88.13
2018-06-16T09:00:30.613Z,87.93
2018-06-16T09:01:37.409Z,87.86
2018-06-16T09:02:44.331Z,87.76
2018-06-16T09:03:51.113Z,87.32
2018-06-16T09:04:57.831Z,87.07
2018-06-16T09:06:04.543Z,86.98
2018-06-16T09:07:11.315Z,86.86
2018-06-16T09:08:18.188Z,86.88
2018-06-16T09:09:25.118Z,86.87
2018-06-16T09:10:31.908Z,86.67
2018-06-16T09:11:38.637Z,86.43
2018-06-16T09:12:45.366Z,86.33
2018-06-16T09:13:52.222Z,86.05
2018-06-16T09:14:59.048Z,86.21
2018-06-16T09:16:05.742Z,85.96
2018-06-16T09:17:12.639Z,85.60
2018-06-16T09:18:19.388Z,85.50
2018-06-16T09:19:26.111Z,85.42
2018-06-16T09:20:32.840Z,85.15
2018-06-16T09:21:39.753Z,85.00
2018-06-16T09:22:46.482Z,84.70
2018-06-16T09:23:53.616Z,84.60
2018-06-16T09:25:00.586Z,84.41
2018-06-16T09:26:07.597Z,84.52
2018-06-16T09:27:14.469Z,84.36
2018-06-16T09:28:21.473Z,84.30
2018-06-16T09:29:28.226Z,84.34
2018-06-16T09:30:35.234Z,84.13
2018-06-16T09:31:41.992Z,84.02
2018-06-16T09:32:48.898Z,83.74
2018-06-16T09:33:55.790Z,83.41
2018-06-16T09:35:02.497Z,83.15
2018-06-16T09:36:09.285Z,82.90
2018-06-16T09:37:16.202Z,82.94
2018-06-16T09:38:23.070Z,82.90
2018-06-16T09:39:29.791Z,82.66
2018-06-16T09:40:36.635Z,82.28
2018-06-16T09:41:43.656Z,82.05
2018-06-16T09:42:50.625Z,81.85
2018-06-16T09:43:57.589Z,81.17
2018-06-16T09:45:04.334Z,81.09
2018-06-16T09:46:11.180Z,81.01
2018-06-16T09:47:18.103Z,80.93
2018-06-16T09:48:25.032Z,80.50
2018-06-16T09:49:31.811Z,79.58
2018-06-16T09:50:38.838Z,79.26
2018-06-16T09:51:45.807Z,78.93
2018-06-16T09:52:52.623Z,78.52
2018-06-16T09:53:59.574Z,78.31
2018-06-16T09:55:06.500Z,78.04
2018-06-16T09:56:13.855Z,77.87
2018-06-16T09:57:20.306Z,77.56
2018-06-16T09:58:26.835Z,77.06
2018-06-16T09:59:33.786Z,77.11
2018-06-16T10:00:40.700Z,77.13
2018-06-16T10:01:47.675Z,76.49
2018-06-16T10:02:54.549Z,76.17
2018-06-16T10:04:01.570Z,76.13
2018-06-16T10:05:08.479Z,76.06
2018-06-16T10:06:15.438Z,75.98
2018-06-16T10:07:22.275Z,75.95
2018-06-16T10:08:29.499Z,75.44
2018-06-16T10:09:36.826Z,75.16
2018-06-16T10:10:43.555Z,74.74
2018-06-16T10:11:51.449Z,74.79
2018-06-16T10:12:56.774Z,74.69
2018-06-16T10:14:04.188Z,74.19
2018-06-16T10:15:10.623Z,74.47
2018-06-16T10:16:17.369Z,73.82
2018-06-16T10:17:24.346Z,73.67
2018-06-16T10:18:31.458Z,73.53
2018-06-16T10:19:38.254Z,73.51
2018-06-16T10:20:44.955Z,73.68
2018-06-16T10:21:52.051Z,73.82
2018-06-16T10:22:59.528Z,74.02
2018-06-16T10:24:06.393Z,74.02
2018-06-16T10:25:12.503Z,73.85
2018-06-16T10:26:19.342Z,73.29
2018-06-16T10:27:26.242Z,73.04
2018-06-16T10:28:33.287Z,73.18
2018-06-16T10:29:39.812Z,72.97
2018-06-16T10:30:46.801Z,73.28
2018-06-16T10:31:53.605Z,73.52
2018-06-16T10:33:00.384Z,73.39
2018-06-16T10:34:07.390Z,73.13
2018-06-16T10:35:14.251Z,72.94
2018-06-16T10:36:21.146Z,72.76
2018-06-16T10:37:27.867Z,72.75
2018-06-16T10:38:34.688Z,72.01
2018-06-16T10:39:41.517Z,71.95
2018-06-16T10:40:48.666Z,71.89
2018-06-16T10:41:55.583Z,72.00
2018-06-16T10:43:02.500Z,71.66
2018-06-16T10:44:09.242Z,71.45
2018-06-16T10:45:16.139Z,71.47
2018-06-16T10:46:22.853Z,71.43
2018-06-16T10:47:29.669Z,71.05
2018-06-16T10:48:36.405Z,70.33
2018-06-16T10:49:43.150Z,70.11
2018-06-16T10:50:49.866Z,70.23
2018-06-16T10:51:56.790Z,70.43
2018-06-16T10:53:03.555Z,70.69
2018-06-16T10:54:10.276Z,70.65
2018-06-16T10:55:17.185Z,70.98
2018-06-16T10:56:23.998Z,70.76
2018-06-16T10:57:30.719Z,70.69
2018-06-16T10:58:37.445Z,70.75
2018-06-16T10:59:44.389Z,70.63
2018-06-16T11:00:51.198Z,70.14
2018-06-16T11:01:57.970Z,70.18
2018-06-16T11:03:04.697Z,69.97
2018-06-16T11:04:11.469Z,69.72
2018-06-16T11:05:18.388Z,69.58
2018-06-16T11:06:25.126Z,69.33
2018-06-16T11:07:31.894Z,69.59
2018-06-16T11:08:38.624Z,69.97
2018-06-16T11:09:45.400Z,69.69
2018-06-16T11:10:52.167Z,69.52
2018-06-16T11:11:58.869Z,69.63
2018-06-16T11:13:05.622Z,69.55
2018-06-16T11:14:12.354Z,69.14
2018-06-16T11:15:19.167Z,69.15
2018-06-16T11:16:26.261Z,68.93
2018-06-16T11:17:32.961Z,68.73
2018-06-16T11:18:39.859Z,68.75
2018-06-16T11:19:46.787Z,68.48
2018-06-16T11:20:53.702Z,68.58
2018-06-16T11:22:00.637Z,68.58
2018-06-16T11:23:07.600Z,68.55
2018-06-16T11:24:14.495Z,68.69
2018-06-16T11:25:21.269Z,68.66
2018-06-16T11:26:28.146Z,68.51
2018-06-16T11:27:35.102Z,68.24
2018-06-16T11:28:41.985Z,68.33
2018-06-16T11:29:48.730Z,68.30
2018-06-16T11:30:55.548Z,67.93
2018-06-16T11:32:02.364Z,67.76
2018-06-16T11:33:09.491Z,67.67
2018-06-16T11:34:16.405Z,67.73
2018-06-16T11:35:23.358Z,67.85
2018-06-16T11:36:30.362Z,67.74
2018-06-16T11:37:37.282Z,67.47
2018-06-16T11:38:44.022Z,67.23
2018-06-16T11:39:51.043Z,67.49
2018-06-16T11:40:58.007Z,67.55
2018-06-16T11:42:04.749Z,67.46
2018-06-16T11:43:11.462Z,67.26
2018-06-16T11:44:18.227Z,67.22
2018-06-16T11:45:25.201Z,67.51
2018-06-16T11:46:31.954Z,67.86
2018-06-16T11:47:38.898Z,67.40
2018-06-16T11:48:45.975Z,67.23
2018-06-16T11:49:52.938Z,67.05
2018-06-16T11:51:00.040Z,67.12
2018-06-16T11:52:06.336Z,67.17
2018-06-16T11:53:13.061Z,67.10
2018-06-16T11:54:19.769Z,67.16
2018-06-16T11:55:26.571Z,66.89
2018-06-16T11:56:33.451Z,66.32
2018-06-16T11:57:40.331Z,66.49
2018-06-16T11:58:47.270Z,66.53
2018-06-16T11:59:54.214Z,66.71
2018-06-16T12:01:01.113Z,66.95
2018-06-16T12:02:08.022Z,67.09
2018-06-16T12:03:14.858Z,66.62
2018-06-16T12:04:21.599Z,66.94
2018-06-16T12:05:28.389Z,67.09
2018-06-16T12:06:35.112Z,67.10
2018-06-16T12:07:41.910Z,66.74
2018-06-16T12:08:48.634Z,67.12
2018-06-16T12:09:55.413Z,67.07
2018-06-16T12:11:02.152Z,67.11
2018-06-16T12:12:09.198Z,67.02
2018-06-16T12:13:15.938Z,67.19
2018-06-16T12:14:22.643Z,67.46
2018-06-16T12:15:29.585Z,66.85
2018-06-16T12:16:36.451Z,66.67
2018-06-16T12:17:43.632Z,66.36
2018-06-16T12:18:50.652Z,66.03
2018-06-16T12:19:57.349Z,65.93
2018-06-16T12:21:04.428Z,65.76
2018-06-16T12:22:11.409Z,65.62
2018-06-16T12:23:18.158Z,65.69
2018-06-16T12:24:25.142Z,65.59
2018-06-16T12:25:32.122Z,65.79
2018-06-16T12:26:38.829Z,66.06
2018-06-16T12:27:45.544Z,66.21
2018-06-16T12:28:52.629Z,65.98
2018-06-16T12:29:59.383Z,65.83
2018-06-16T12:31:06.114Z,65.94
2018-06-16T12:32:12.809Z,66.05
2018-06-16T12:33:19.503Z,66.00
2018-06-16T12:34:26.235Z,66.08
2018-06-16T12:35:32.994Z,66.21
2018-06-16T12:36:39.891Z,66.02
2018-06-16T12:37:46.802Z,65.80
2018-06-16T12:38:53.733Z,65.59
2018-06-16T12:40:00.398Z,65.45
2018-06-16T12:41:07.408Z,65.34
2018-06-16T12:42:14.266Z,65.22
2018-06-16T12:43:21.095Z,65.03
2018-06-16T12:44:27.961Z,65.12
2018-06-16T12:45:34.710Z,65.17
2018-06-16T12:46:41.446Z,64.99
2018-06-16T12:47:48.242Z,64.69
2018-06-16T12:48:54.965Z,64.70
2018-06-16T12:50:01.823Z,65.04
2018-06-16T12:51:08.985Z,65.09
2018-06-16T12:52:15.232Z,65.34
2018-06-16T12:53:22.070Z,65.72
2018-06-16T12:54:28.804Z,65.91
2018-06-16T12:55:35.654Z,65.50
2018-06-16T12:56:42.613Z,65.46
2018-06-16T12:57:49.619Z,65.42
2018-06-16T12:58:56.507Z,65.31
2018-06-16T13:00:03.403Z,65.55
2018-06-16T13:01:10.350Z,65.76
2018-06-16T13:02:17.303Z,65.89
2018-06-16T13:03:24.089Z,65.77
2018-06-16T13:04:30.911Z,66.31
2018-06-16T13:05:37.771Z,66.58
2018-06-16T13:06:44.517Z,66.79
2018-06-16T13:07:51.289Z,66.56
2018-06-16T13:08:58.418Z,66.33
2018-06-16T13:10:05.316Z,66.36
2018-06-16T13:11:12.302Z,66.32
2018-06-16T13:12:19.141Z,66.23
2018-06-16T13:13:26.164Z,66.05
2018-06-16T13:14:32.911Z,66.37
2018-06-16T13:15:40.078Z,66.64
2018-06-16T13:16:46.431Z,67.07
2018-06-16T13:17:53.157Z,66.63
2018-06-16T13:19:00.027Z,66.63
2018-06-16T13:20:07.250Z,66.46
2018-06-16T13:21:14.148Z,66.43
2018-06-16T13:22:20.894Z,66.55
2018-06-16T13:23:27.887Z,66.42
2018-06-16T13:24:34.676Z,66.23
2018-06-16T13:25:41.506Z,65.94
2018-06-16T13:26:48.270Z,65.95
2018-06-16T13:27:55.205Z,65.95
2018-06-16T13:29:01.992Z,66.01
2018-06-16T13:30:08.923Z,66.14
2018-06-16T13:31:15.879Z,65.87
2018-06-16T13:32:22.871Z,65.90
2018-06-16T13:33:29.605Z,65.67
2018-06-16T13:34:36.762Z,65.83
2018-06-16T13:35:43.626Z,65.67
2018-06-16T13:36:50.420Z,65.72
2018-06-16T13:37:57.290Z,65.76
2018-06-16T13:39:04.107Z,66.17
2018-06-16T13:40:10.886Z,65.96
2018-06-16T13:41:17.660Z,65.75
2018-06-16T13:42:24.578Z,65.81
2018-06-16T13:43:31.474Z,65.30
2018-06-16T13:44:38.374Z,65.29
2018-06-16T13:45:45.478Z,65.51
2018-06-16T13:46:54.236Z,65.78
2018-06-16T13:47:59.075Z,65.33
2018-06-16T13:49:05.782Z,65.04
2018-06-16T13:50:13.015Z,64.82
2018-06-16T13:51:19.829Z,64.45
2018-06-16T13:52:26.722Z,64.65
2018-06-16T13:53:33.585Z,64.79
2018-06-16T13:54:40.301Z,64.82
2018-06-16T13:55:47.037Z,65.02
2018-06-16T13:56:53.828Z,65.19
2018-06-16T13:58:00.578Z,65.13
2018-06-16T13:59:07.414Z,64.68
2018-06-16T14:00:14.147Z,64.36
2018-06-16T14:01:20.989Z,64.39
2018-06-16T14:02:27.806Z,64.25
2018-06-16T14:03:34.467Z,64.36
2018-06-16T14:04:41.199Z,64.27
2018-06-16T14:05:47.892Z,64.18
2018-06-16T14:06:54.791Z,64.40
2018-06-16T14:08:01.666Z,64.59
2018-06-16T14:09:08.394Z,64.79
2018-06-16T14:10:15.233Z,64.94
2018-06-16T14:11:21.983Z,65.04
2018-06-16T14:12:28.978Z,65.12
2018-06-16T14:13:35.717Z,65.26
2018-06-16T14:14:42.549Z,65.54
2018-06-16T14:15:49.386Z,65.61
2018-06-16T14:16:56.382Z,65.90
2018-06-16T14:18:03.288Z,66.00
2018-06-16T14:19:10.226Z,65.97
2018-06-16T14:20:16.993Z,65.27
2018-06-16T14:21:23.838Z,64.84